General Aviation Weather

Text Reports

Enter one or more of the following location identifiers separated by a space:

Zip Code, Four-Character ICAO or Three-Character IATA airport codes.

METAR - Aviation Routine Weather Report
KCFE - Buffalo, Minnesota
Updated at 4:55 PM GMT on April 17, 2014 (11:55 AM CDT):
METAR KCFE 171655Z AUTO 32005KT 10SM SCT020 02/M04 A3029 RMK AO2 T00161040
TAF - Terminal Area Forecast
KCFE - Buffalo, Minnesota
Updated at 4:55 PM GMT on April 17, 2014 (11:55 AM CDT):
No TAF is currently available for this location.
Decoded:
No decoded TAF is available.
PIREP - Pilot Weather Report
KCFE - Buffalo, Minnesota
Updated at 4:55 PM GMT on April 17, 2014 (11:55 AM CDT):
No PIREP is currently available for this location.
AIRMET - Airmens Meteorological Information
KCFE - Buffalo, Minnesota
Updated at 4:55 PM GMT on April 17, 2014 (11:55 AM CDT):
No AIRMET is currently available for this location.
SIGMET - Significant Meteorological Information
KCFE - Buffalo, Minnesota
Updated at 4:55 PM GMT on April 17, 2014 (11:55 AM CDT):
No SIGMET is currently available for this location.
NOTAM - Notice to Airmen
KCFE - Buffalo, Minnesota
Updated at 4:55 PM GMT on April 17, 2014 (11:55 AM CDT):
No NOTAM is currently available for this location.
Forecast Area
KCFE - Buffalo, Minnesota
Updated at 4:55 PM GMT on April 17, 2014 (11:55 AM CDT):
No NOTAM is currently available for this location.
Aviation Weather Maps